createdAt,value
2023-02-02T00:03:33.765Z,99037.56
2023-02-02T00:06:22.482Z,99051.44
2023-02-02T00:09:11.802Z,99017.50
2023-02-02T00:12:00.458Z,99023.47
2023-02-02T00:14:47.520Z,99031.91
2023-02-02T00:17:34.590Z,99015.03
2023-02-02T00:20:22.766Z,99024.28
2023-02-02T00:23:09.886Z,99031.94
2023-02-02T00:25:56.884Z,99039.47
2023-02-02T00:28:44.116Z,99042.88
2023-02-02T00:31:31.355Z,99028.31
2023-02-02T00:34:19.057Z,99039.25
2023-02-02T00:37:06.121Z,99036.06
2023-02-02T00:39:53.197Z,99030.75
2023-02-02T00:42:40.348Z,99028.84
2023-02-02T00:45:27.508Z,99031.00
2023-02-02T00:48:14.625Z,99030.66
2023-02-02T00:51:02.432Z,99040.66
2023-02-02T00:53:49.468Z,99037.16
2023-02-02T00:56:36.609Z,99046.47
2023-02-02T00:59:23.771Z,99050.44
2023-02-02T01:02:11.650Z,99055.13
2023-02-02T01:04:58.759Z,99046.03
2023-02-02T01:07:46.246Z,99062.72
2023-02-02T01:10:34.171Z,99063.94
2023-02-02T01:13:21.424Z,99078.41
2023-02-02T01:16:09.400Z,99081.91
2023-02-02T01:18:56.840Z,99107.41
2023-02-02T01:21:43.979Z,99118.25
2023-02-02T01:24:31.150Z,99107.53
2023-02-02T01:27:18.822Z,99110.09
2023-02-02T01:30:06.870Z,99100.44
2023-02-02T01:32:53.901Z,99104.25
2023-02-02T01:35:48.720Z,99102.31
2023-02-02T01:38:36.123Z,99105.13
2023-02-02T01:41:24.916Z,99106.94
2023-02-02T01:44:56.952Z,99129.00
2023-02-02T01:47:49.157Z,99134.38
2023-02-02T01:50:36.304Z,99127.41
2023-02-02T01:53:24.130Z,99140.81
2023-02-02T01:56:14.672Z,99139.06
2023-02-02T01:59:02.948Z,99114.41
2023-02-02T02:01:52.084Z,99110.66
2023-02-02T02:04:40.213Z,99111.91
2023-02-02T02:07:27.435Z,99114.09
2023-02-02T02:10:14.514Z,99094.66
2023-02-02T02:13:01.650Z,99108.56
2023-02-02T02:16:20.361Z,99123.34
2023-02-02T02:20:07.694Z,99135.25
2023-02-02T02:23:38.401Z,99156.19
2023-02-02T02:27:04.482Z,99140.44
2023-02-02T02:30:21.061Z,99131.41
2023-02-02T02:33:24.128Z,99144.34
2023-02-02T02:36:19.466Z,99138.66
2023-02-02T02:39:20.397Z,99136.97
2023-02-02T02:42:15.779Z,99111.03
2023-02-02T02:45:05.177Z,99110.19
2023-02-02T02:47:53.487Z,99094.06
2023-02-02T02:50:40.543Z,99094.19
2023-02-02T02:53:27.643Z,99084.31
2023-02-02T02:56:24.858Z,99111.63
2023-02-02T02:59:21.283Z,99104.97
2023-02-02T03:02:20.561Z,99114.91
2023-02-02T03:05:46.183Z,99106.44
2023-02-02T03:08:40.545Z,99118.69
2023-02-02T03:11:28.351Z,99115.06
2023-02-02T03:14:15.394Z,99098.34
2023-02-02T03:17:02.563Z,99112.66
2023-02-02T03:19:49.679Z,99110.69
2023-02-02T03:22:36.942Z,99098.47
2023-02-02T03:25:24.833Z,99095.59
2023-02-02T03:28:12.799Z,99127.19
2023-02-02T03:31:01.704Z,99104.03
2023-02-02T03:33:48.865Z,99124.00
2023-02-02T03:36:35.891Z,99114.16
2023-02-02T03:39:23.011Z,99124.78
2023-02-02T03:42:10.088Z,99115.44
2023-02-02T03:44:57.155Z,99120.34
2023-02-02T03:47:44.226Z,99105.50
2023-02-02T03:50:31.381Z,99109.00
2023-02-02T03:53:18.612Z,99085.81
2023-02-02T03:56:06.170Z,99133.84
2023-02-02T03:58:53.249Z,99116.53
2023-02-02T04:01:40.429Z,99126.44
2023-02-02T04:04:27.485Z,99138.19
2023-02-02T04:07:14.640Z,99134.53
2023-02-02T04:10:01.675Z,99131.50
2023-02-02T04:12:48.780Z,99172.72
2023-02-02T04:15:35.841Z,99168.09
2023-02-02T04:18:23.064Z,99150.59
2023-02-02T04:21:10.162Z,99118.16
2023-02-02T04:23:57.565Z,99166.69
2023-02-02T04:26:44.840Z,99166.13
2023-02-02T04:29:32.045Z,99167.63
2023-02-02T04:32:19.236Z,99152.69
2023-02-02T04:35:06.938Z,99174.44
2023-02-02T04:37:55.524Z,99107.91
2023-02-02T04:40:45.246Z,99128.00
2023-02-02T04:43:34.262Z,99160.44
2023-02-02T04:46:21.469Z,99153.44
2023-02-02T04:49:11.447Z,99146.53
2023-02-02T04:51:58.538Z,99181.47
2023-02-02T04:54:45.616Z,99196.59
2023-02-02T04:57:32.704Z,99183.25
2023-02-02T05:00:20.022Z,99182.78
2023-02-02T05:03:07.178Z,99180.53
2023-02-02T05:06:04.779Z,99169.53
2023-02-02T05:08:51.990Z,99146.06
2023-02-02T05:11:41.234Z,99141.50
2023-02-02T05:14:28.410Z,99137.59
2023-02-02T05:17:15.639Z,99106.59
2023-02-02T05:20:02.796Z,99113.78
2023-02-02T05:22:50.213Z,99165.38
2023-02-02T05:25:37.437Z,99193.59
2023-02-02T05:28:25.107Z,99196.38
2023-02-02T05:31:12.705Z,99223.88
2023-02-02T05:34:00.018Z,99201.47
2023-02-02T05:36:47.364Z,99213.38
2023-02-02T05:39:34.564Z,99191.34
2023-02-02T05:42:21.832Z,99181.81
2023-02-02T05:45:09.452Z,99198.53
2023-02-02T05:47:56.622Z,99193.81
2023-02-02T05:50:49.658Z,99187.56
2023-02-02T05:53:36.849Z,99205.91
2023-02-02T05:56:24.040Z,99193.25
2023-02-02T05:59:11.223Z,99210.09
2023-02-02T06:01:58.378Z,99201.66
2023-02-02T06:04:45.622Z,99218.56
2023-02-02T06:07:33.189Z,99226.25
2023-02-02T06:10:20.375Z,99228.72
2023-02-02T06:13:08.393Z,99233.91
2023-02-02T06:15:55.572Z,99251.03
2023-02-02T06:18:42.848Z,99229.28
2023-02-02T06:21:32.734Z,99228.06
2023-02-02T06:24:19.840Z,99209.91
2023-02-02T06:27:07.004Z,99235.63
2023-02-02T06:29:54.092Z,99238.09
2023-02-02T06:32:41.524Z,99262.28
2023-02-02T06:35:28.638Z,99237.97
2023-02-02T06:38:15.987Z,99243.16
2023-02-02T06:41:03.805Z,99235.53
2023-02-02T06:43:51.015Z,99217.38
2023-02-02T06:46:38.159Z,99249.72
2023-02-02T06:49:25.287Z,99272.03
2023-02-02T06:52:15.004Z,99262.31
2023-02-02T06:55:02.676Z,99265.97
2023-02-02T06:57:56.718Z,99277.16
2023-02-02T07:00:43.790Z,99286.69
2023-02-02T07:03:31.082Z,99277.25
2023-02-02T07:06:19.887Z,99282.47
2023-02-02T07:09:07.164Z,99296.16
2023-02-02T07:11:54.267Z,99301.00
2023-02-02T07:14:41.481Z,99294.19
2023-02-02T07:17:29.041Z,99305.38
2023-02-02T07:20:16.463Z,99307.72
2023-02-02T07:23:04.651Z,99320.59
2023-02-02T07:26:01.126Z,99325.78
2023-02-02T07:28:48.529Z,99323.41
2023-02-02T07:31:36.817Z,99352.78
2023-02-02T07:34:24.701Z,99329.97
2023-02-02T07:37:11.870Z,99330.44
2023-02-02T07:39:59.057Z,99324.28
2023-02-02T07:42:48.073Z,99348.81
2023-02-02T07:45:36.480Z,99345.28
2023-02-02T07:48:23.709Z,99320.69
2023-02-02T07:51:15.296Z,99346.53
2023-02-02T07:54:02.418Z,99324.09
2023-02-02T07:56:49.831Z,99332.97
2023-02-02T07:59:36.958Z,99354.00
2023-02-02T08:02:24.253Z,99331.19
2023-02-02T08:05:11.962Z,99325.97
2023-02-02T08:07:59.101Z,99355.50
2023-02-02T08:10:50.434Z,99364.69
2023-02-02T08:13:38.002Z,99361.56
2023-02-02T08:16:26.966Z,99357.31
2023-02-02T08:19:14.467Z,99338.47
2023-02-02T08:22:01.611Z,99340.94
2023-02-02T08:24:48.738Z,99352.66
2023-02-02T08:27:37.889Z,99347.88
2023-02-02T08:30:25.842Z,99339.47
2023-02-02T08:33:13.736Z,99350.44
2023-02-02T08:36:02.058Z,99318.88
2023-02-02T08:38:50.049Z,99354.53
2023-02-02T08:41:37.790Z,99374.50
2023-02-02T08:44:27.478Z,99375.78
2023-02-02T08:47:30.450Z,99367.38
2023-02-02T08:50:18.523Z,99349.97
2023-02-02T08:53:05.819Z,99367.50
2023-02-02T08:56:04.621Z,99349.97
2023-02-02T08:58:58.322Z,99366.88
2023-02-02T09:01:45.447Z,99363.59
2023-02-02T09:04:32.622Z,99380.66
2023-02-02T09:07:21.204Z,99349.00
2023-02-02T09:10:08.973Z,99389.06
2023-02-02T09:12:56.043Z,99408.56
2023-02-02T09:15:43.387Z,99394.81
2023-02-02T09:21:02.745Z,99387.72
2023-02-02T09:23:51.621Z,99400.09
2023-02-02T09:26:40.532Z,99407.16
2023-02-02T09:29:27.762Z,99403.94
2023-02-02T09:32:14.889Z,99410.66
2023-02-02T09:35:01.959Z,99398.41
2023-02-02T09:37:49.035Z,99415.66
2023-02-02T09:40:36.227Z,99415.97
2023-02-02T09:43:49.287Z,99417.69
2023-02-02T09:46:54.954Z,99424.56
2023-02-02T09:50:00.342Z,99431.78
2023-02-02T09:52:55.233Z,99428.06
2023-02-02T09:55:45.610Z,99413.28
2023-02-02T09:58:37.181Z,99433.69
2023-02-02T10:01:32.013Z,99417.91
2023-02-02T10:04:40.451Z,99428.00
2023-02-02T10:07:34.821Z,99412.22
2023-02-02T10:10:29.388Z,99422.25
2023-02-02T10:13:23.401Z,99425.66
2023-02-02T10:16:18.992Z,99418.88
2023-02-02T10:19:14.283Z,99392.34
2023-02-02T10:22:10.879Z,99432.34
2023-02-02T10:24:58.849Z,99428.59
2023-02-02T10:28:00.548Z,99443.34
2023-02-02T10:30:59.416Z,99441.34
2023-02-02T10:34:02.468Z,99411.69
2023-02-02T10:37:15.779Z,99455.09
2023-02-02T10:40:26.053Z,99445.69
2023-02-02T10:43:40.829Z,99452.06
2023-02-02T10:46:31.756Z,99445.13
2023-02-02T10:49:34.558Z,99432.53
2023-02-02T10:52:29.735Z,99416.28
2023-02-02T10:55:27.719Z,99426.09
2023-02-02T10:58:25.041Z,99434.69
2023-02-02T11:01:12.314Z,99415.09
2023-02-02T11:04:25.685Z,99421.31
2023-02-02T11:07:20.783Z,99416.00
2023-02-02T11:10:08.134Z,99414.88
2023-02-02T11:12:58.378Z,99410.59
2023-02-02T11:15:46.131Z,99422.03
2023-02-02T11:18:33.257Z,99422.50
2023-02-02T11:21:20.648Z,99418.59
2023-02-02T11:24:24.774Z,99407.69
2023-02-02T11:27:20.394Z,99404.44
2023-02-02T11:30:36.061Z,99405.78
2023-02-02T11:33:28.507Z,99408.69
2023-02-02T11:36:21.429Z,99411.84
2023-02-02T11:39:16.445Z,99402.63
2023-02-02T11:42:20.169Z,99390.78
2023-02-02T11:45:19.708Z,99391.00
2023-02-02T11:48:20.514Z,99399.22
2023-02-02T11:51:08.247Z,99390.28
2023-02-02T11:54:18.485Z,99392.66
2023-02-02T11:57:08.037Z,99387.63
2023-02-02T12:00:10.470Z,99387.69
2023-02-02T12:02:59.242Z,99362.84
2023-02-02T12:05:50.079Z,99375.59
2023-02-02T12:08:37.557Z,99391.25
2023-02-02T12:11:33.350Z,99385.41
2023-02-02T12:15:02.688Z,99388.44
2023-02-02T12:17:57.090Z,99375.41
2023-02-02T12:20:50.683Z,99385.81
2023-02-02T12:23:57.976Z,99381.72
2023-02-02T12:26:52.161Z,99369.09
2023-02-02T12:30:25.101Z,99387.63
2023-02-02T12:33:50.860Z,99374.84
2023-02-02T12:36:43.896Z,99371.94
2023-02-02T12:40:01.775Z,99383.22
2023-02-02T12:43:18.163Z,99389.19
2023-02-02T12:46:13.213Z,99382.22
2023-02-02T12:49:17.316Z,99386.00
2023-02-02T12:52:25.017Z,99394.81
2023-02-02T12:55:42.113Z,99373.50
2023-02-02T12:58:37.810Z,99386.47
2023-02-02T13:01:40.706Z,99394.50
2023-02-02T13:05:01.512Z,99404.75
2023-02-02T13:08:21.691Z,99417.78
2023-02-02T13:11:32.998Z,99427.78
2023-02-02T13:14:30.272Z,99431.53
2023-02-02T13:17:42.911Z,99434.19
2023-02-02T13:20:48.681Z,99433.50
2023-02-02T13:23:57.937Z,99431.94
2023-02-02T13:26:46.481Z,99440.56
2023-02-02T13:29:53.100Z,99430.75
2023-02-02T13:32:45.760Z,99437.09
2023-02-02T13:35:51.970Z,99438.63
2023-02-02T13:38:42.359Z,99430.50
2023-02-02T13:41:31.490Z,99448.97
2023-02-02T13:44:42.304Z,99437.59
2023-02-02T13:47:39.807Z,99441.47
2023-02-02T13:50:30.480Z,99438.91
2023-02-02T13:53:59.136Z,99458.28
2023-02-02T13:57:04.422Z,99460.94
2023-02-02T14:00:23.683Z,99475.97
2023-02-02T14:03:32.282Z,99470.31
2023-02-02T14:06:21.285Z,99463.31
2023-02-02T14:09:18.810Z,99479.97
2023-02-02T14:12:09.855Z,99474.94
2023-02-02T14:14:57.302Z,99479.44
2023-02-02T14:17:44.386Z,99496.09
2023-02-02T14:20:45.066Z,99496.25
2023-02-02T14:23:51.719Z,99490.13
2023-02-02T14:26:46.679Z,99506.75
2023-02-02T14:29:35.858Z,99511.97
2023-02-02T14:32:28.749Z,99508.31
2023-02-02T14:35:15.771Z,99514.63
2023-02-02T14:38:15.653Z,99519.22
2023-02-02T14:41:41.837Z,99515.13
2023-02-02T14:44:29.089Z,99531.75
2023-02-02T14:47:42.834Z,99536.53
2023-02-02T14:50:32.725Z,99546.53
2023-02-02T14:53:29.653Z,99549.03
2023-02-02T14:56:17.945Z,99541.84
2023-02-02T14:59:07.712Z,99552.53
2023-02-02T15:02:02.694Z,99550.41
2023-02-02T15:04:49.972Z,99547.75
2023-02-02T15:07:50.542Z,99543.56
2023-02-02T15:10:53.899Z,99561.94
2023-02-02T15:13:42.761Z,99562.34
2023-02-02T15:16:32.132Z,99563.81
2023-02-02T15:19:27.550Z,99562.00
2023-02-02T15:22:46.553Z,99563.09
2023-02-02T15:25:51.877Z,99575.94
2023-02-02T15:28:41.658Z,99573.28
2023-02-02T15:31:35.716Z,99558.91
2023-02-02T15:34:31.108Z,99576.09
2023-02-02T15:37:30.702Z,99570.09
2023-02-02T15:40:25.206Z,99578.13
2023-02-02T15:43:14.085Z,99559.94
2023-02-02T15:46:09.621Z,99560.41
2023-02-02T15:49:36.296Z,99567.19
2023-02-02T15:52:27.398Z,99566.16
2023-02-02T15:55:25.238Z,99564.53
2023-02-02T15:58:33.505Z,99578.69
2023-02-02T16:01:23.478Z,99588.09
2023-02-02T16:04:20.394Z,99585.53
2023-02-02T16:07:14.988Z,99600.72
2023-02-02T16:10:04.602Z,99592.50
2023-02-02T16:12:52.118Z,99605.16
2023-02-02T16:15:39.101Z,99608.50
2023-02-02T16:18:27.280Z,99612.47
2023-02-02T16:21:23.947Z,99602.34
2023-02-02T16:24:17.269Z,99624.22
2023-02-02T16:27:06.983Z,99628.50
2023-02-02T16:29:58.590Z,99640.88
2023-02-02T16:32:45.641Z,99647.72
2023-02-02T16:35:38.601Z,99655.97
2023-02-02T16:38:34.490Z,99652.94
2023-02-02T16:41:36.356Z,99673.63
2023-02-02T16:44:40.944Z,99670.13
2023-02-02T16:47:28.161Z,99684.84
2023-02-02T16:50:33.680Z,99679.69
2023-02-02T16:53:23.472Z,99685.78
2023-02-02T16:56:24.418Z,99690.44
2023-02-02T16:59:26.180Z,99694.53
2023-02-02T17:02:21.129Z,99692.31
2023-02-02T17:05:17.246Z,99701.81
2023-02-02T17:08:07.932Z,99715.03
2023-02-02T17:11:22.541Z,99730.28
2023-02-02T17:14:25.667Z,99737.38
2023-02-02T17:17:14.003Z,99732.16
2023-02-02T17:20:04.286Z,99734.50
2023-02-02T17:22:54.442Z,99747.53
2023-02-02T17:25:44.519Z,99740.25
2023-02-02T17:28:32.093Z,99763.44
2023-02-02T17:31:26.225Z,99774.97
2023-02-02T17:34:15.556Z,99794.19
2023-02-02T17:37:02.890Z,99796.03
2023-02-02T17:39:50.892Z,99802.13
2023-02-02T17:42:39.058Z,99805.25
2023-02-02T17:45:34.421Z,99810.69
2023-02-02T17:48:23.433Z,99800.13
2023-02-02T17:51:17.000Z,99805.25
2023-02-02T17:54:09.408Z,99810.47
2023-02-02T17:56:58.971Z,99816.22
2023-02-02T17:59:46.206Z,99828.75
2023-02-02T18:02:34.402Z,99833.50
2023-02-02T18:05:21.796Z,99836.06
2023-02-02T18:08:11.614Z,99831.56
2023-02-02T18:10:59.620Z,99853.19
2023-02-02T18:13:47.191Z,99841.31
2023-02-02T18:16:35.688Z,99846.84
2023-02-02T18:19:23.266Z,99831.88
2023-02-02T18:22:14.451Z,99842.22
2023-02-02T18:25:04.274Z,99860.63
2023-02-02T18:27:52.556Z,99839.97
2023-02-02T18:30:42.120Z,99867.53
2023-02-02T18:33:29.463Z,99871.50
2023-02-02T18:36:20.158Z,99880.53
2023-02-02T18:39:10.010Z,99880.00
2023-02-02T18:41:58.246Z,99875.09
2023-02-02T18:44:45.844Z,99887.75
2023-02-02T18:47:33.643Z,99901.47
2023-02-02T18:50:22.140Z,99888.47
2023-02-02T18:53:09.399Z,99896.56
2023-02-02T18:55:56.710Z,99899.75
2023-02-02T18:58:44.721Z,99868.44
2023-02-02T19:01:32.696Z,99899.22
2023-02-02T19:04:20.536Z,99920.25
2023-02-02T19:07:26.658Z,99899.84
2023-02-02T19:10:15.116Z,99909.00
2023-02-02T19:13:19.687Z,99920.38
2023-02-02T19:16:18.725Z,99923.78
2023-02-02T19:19:30.434Z,99920.72
2023-02-02T19:22:23.767Z,99932.75
2023-02-02T19:25:13.145Z,99923.78
2023-02-02T19:28:15.402Z,99922.84
2023-02-02T19:31:02.836Z,99913.66
2023-02-02T19:33:52.117Z,99922.94
2023-02-02T19:36:42.210Z,99921.06
2023-02-02T19:39:31.414Z,99925.19
2023-02-02T19:42:18.842Z,99916.53
2023-02-02T19:45:23.203Z,99927.22
2023-02-02T19:48:17.071Z,99946.91
2023-02-02T19:51:44.378Z,99949.72
2023-02-02T19:54:38.142Z,99955.13
2023-02-02T19:57:36.920Z,99959.28
2023-02-02T20:00:30.304Z,99969.59
2023-02-02T20:03:27.701Z,99976.59
2023-02-02T20:06:35.020Z,99993.72
2023-02-02T20:09:25.302Z,100000.53
2023-02-02T20:12:24.839Z,99996.38
2023-02-02T20:15:34.816Z,99996.00
2023-02-02T20:18:29.820Z,100003.31
2023-02-02T20:21:45.840Z,100013.84
2023-02-02T20:24:37.354Z,100014.34
2023-02-02T20:27:27.456Z,100020.41
2023-02-02T20:30:28.466Z,100021.72
2023-02-02T20:33:27.579Z,100014.63
2023-02-02T20:36:38.224Z,100023.13
2023-02-02T20:39:36.323Z,100032.81
2023-02-02T20:42:24.313Z,100018.63
2023-02-02T20:45:12.122Z,100028.28
2023-02-02T20:47:59.636Z,100027.34
2023-02-02T20:50:47.263Z,100028.59
2023-02-02T20:53:35.429Z,100035.53
2023-02-02T20:56:25.883Z,100027.44
2023-02-02T20:59:14.773Z,100046.69
2023-02-02T21:02:02.407Z,100028.22
2023-02-02T21:04:50.703Z,100043.38
2023-02-02T21:07:37.795Z,100050.84
2023-02-02T21:10:26.427Z,100041.94
2023-02-02T21:13:13.847Z,100043.41
2023-02-02T21:16:01.206Z,100043.75
2023-02-02T21:18:48.845Z,100055.13
2023-02-02T21:21:36.115Z,100047.63
2023-02-02T21:24:24.204Z,100062.25
2023-02-02T21:27:11.383Z,100063.19
2023-02-02T21:29:58.560Z,100064.94
2023-02-02T21:32:45.777Z,100065.16
2023-02-02T21:35:34.442Z,100065.84
2023-02-02T21:38:21.714Z,100072.38
2023-02-02T21:41:14.454Z,100076.81
2023-02-02T21:44:01.545Z,100074.06
2023-02-02T21:46:51.884Z,100085.66
2023-02-02T21:49:39.951Z,100083.00
2023-02-02T21:52:32.646Z,100089.06
2023-02-02T21:55:29.309Z,100095.53
2023-02-02T21:58:22.761Z,100101.91
2023-02-02T22:01:42.287Z,100093.59
2023-02-02T22:04:29.601Z,100085.59
2023-02-02T22:07:16.786Z,100072.34
2023-02-02T22:10:29.796Z,100101.50
2023-02-02T22:13:18.460Z,100106.56
2023-02-02T22:16:15.613Z,100093.34
2023-02-02T22:19:11.695Z,100110.72
2023-02-02T22:22:17.051Z,100121.09
2023-02-02T22:25:10.624Z,100117.03
2023-02-02T22:27:59.867Z,100120.09
2023-02-02T22:30:47.939Z,100120.47
2023-02-02T22:33:35.057Z,100114.31
2023-02-02T22:36:22.046Z,100124.53
2023-02-02T22:39:09.285Z,100124.41
2023-02-02T22:41:56.263Z,100129.53
2023-02-02T22:44:44.270Z,100128.41
2023-02-02T22:47:31.305Z,100117.81
2023-02-02T22:50:21.976Z,100128.69
2023-02-02T22:53:09.102Z,100122.53
2023-02-02T22:55:56.812Z,100128.03
2023-02-02T22:58:43.859Z,100115.16
2023-02-02T23:01:30.888Z,100123.31
2023-02-02T23:04:17.892Z,100127.84
2023-02-02T23:07:04.973Z,100121.66
2023-02-02T23:09:52.015Z,100138.44
2023-02-02T23:12:39.946Z,100134.66
2023-02-02T23:15:27.813Z,100126.47
2023-02-02T23:18:14.867Z,100112.50
2023-02-02T23:21:01.846Z,100118.47
2023-02-02T23:23:49.593Z,100125.53
2023-02-02T23:26:36.583Z,100122.81
2023-02-02T23:29:23.819Z,100130.84
2023-02-02T23:32:10.835Z,100127.25
2023-02-02T23:34:57.858Z,100133.84
2023-02-02T23:37:44.918Z,100131.69
2023-02-02T23:40:31.951Z,100147.81
2023-02-02T23:43:18.995Z,100151.63
2023-02-02T23:46:06.041Z,100142.63
2023-02-02T23:48:54.071Z,100151.63
2023-02-02T23:51:41.335Z,100141.66
2023-02-02T23:54:29.517Z,100158.44
2023-02-02T23:57:16.656Z,100155.06
